sensor_id;sensor_type;location;lat;lon;timestamp;P1;durP1;ratioP1;P2;durP2;ratioP2
21507;SDS011;10915;54.352;9.074;2023-06-26T00:00:17;8.50;;;6.57;;
21507;SDS011;10915;54.352;9.074;2023-06-26T00:02:43;8.27;;;6.40;;
21507;SDS011;10915;54.352;9.074;2023-06-26T00:05:09;7.37;;;6.57;;
21507;SDS011;10915;54.352;9.074;2023-06-26T00:07:35;7.43;;;6.27;;
21507;SDS011;10915;54.352;9.074;2023-06-26T00:10:04;7.97;;;5.80;;
21507;SDS011;10915;54.352;9.074;2023-06-26T00:12:30;7.97;;;6.23;;
21507;SDS011;10915;54.352;9.074;2023-06-26T00:14:57;8.17;;;6.37;;
21507;SDS011;10915;54.352;9.074;2023-06-26T00:17:23;7.87;;;6.40;;
21507;SDS011;10915;54.352;9.074;2023-06-26T00:19:49;8.13;;;6.83;;
21507;SDS011;10915;54.352;9.074;2023-06-26T00:22:15;7.57;;;6.37;;
21507;SDS011;10915;54.352;9.074;2023-06-26T00:24:41;8.10;;;6.77;;
21507;SDS011;10915;54.352;9.074;2023-06-26T00:27:07;8.67;;;6.60;;
21507;SDS011;10915;54.352;9.074;2023-06-26T00:29:32;8.67;;;6.70;;
21507;SDS011;10915;54.352;9.074;2023-06-26T00:31:58;8.37;;;6.63;;
21507;SDS011;10915;54.352;9.074;2023-06-26T00:34:24;8.40;;;6.47;;
21507;SDS011;10915;54.352;9.074;2023-06-26T00:36:49;10.20;;;6.93;;
21507;SDS011;10915;54.352;9.074;2023-06-26T00:39:15;9.73;;;7.50;;
21507;SDS011;10915;54.352;9.074;2023-06-26T00:41:41;7.60;;;6.80;;
21507;SDS011;10915;54.352;9.074;2023-06-26T00:44:07;9.00;;;7.03;;
21507;SDS011;10915;54.352;9.074;2023-06-26T00:46:32;8.77;;;7.10;;
21507;SDS011;10915;54.352;9.074;2023-06-26T00:48:59;8.67;;;6.73;;
21507;SDS011;10915;54.352;9.074;2023-06-26T00:51:27;8.47;;;7.03;;
21507;SDS011;10915;54.352;9.074;2023-06-26T00:53:55;9.27;;;7.50;;
21507;SDS011;10915;54.352;9.074;2023-06-26T00:56:21;8.63;;;7.20;;
21507;SDS011;10915;54.352;9.074;2023-06-26T00:58:47;9.23;;;7.50;;
21507;SDS011;10915;54.352;9.074;2023-06-26T01:01:13;9.60;;;7.27;;
21507;SDS011;10915;54.352;9.074;2023-06-26T01:03:42;8.60;;;7.43;;
21507;SDS011;10915;54.352;9.074;2023-06-26T01:06:10;8.67;;;7.60;;
21507;SDS011;10915;54.352;9.074;2023-06-26T01:08:38;11.43;;;8.27;;
21507;SDS011;10915;54.352;9.074;2023-06-26T01:11:05;9.63;;;7.90;;
21507;SDS011;10915;54.352;9.074;2023-06-26T01:13:31;10.13;;;7.60;;
21507;SDS011;10915;54.352;9.074;2023-06-26T01:15:58;9.80;;;8.33;;
21507;SDS011;10915;54.352;9.074;2023-06-26T01:18:24;9.53;;;8.23;;
21507;SDS011;10915;54.352;9.074;2023-06-26T01:20:51;10.30;;;7.90;;
21507;SDS011;10915;54.352;9.074;2023-06-26T01:23:22;11.20;;;8.17;;
21507;SDS011;10915;54.352;9.074;2023-06-26T01:28:35;10.03;;;7.80;;
21507;SDS011;10915;54.352;9.074;2023-06-26T01:31:04;10.47;;;8.70;;
21507;SDS011;10915;54.352;9.074;2023-06-26T01:33:31;10.83;;;8.40;;
21507;SDS011;10915;54.352;9.074;2023-06-26T01:35:57;10.73;;;8.40;;
21507;SDS011;10915;54.352;9.074;2023-06-26T01:38:23;9.10;;;8.17;;
21507;SDS011;10915;54.352;9.074;2023-06-26T01:40:49;11.27;;;8.47;;
21507;SDS011;10915;54.352;9.074;2023-06-26T01:43:21;10.93;;;8.90;;
21507;SDS011;10915;54.352;9.074;2023-06-26T01:46:04;10.80;;;8.90;;
21507;SDS011;10915;54.352;9.074;2023-06-26T01:48:37;9.67;;;8.67;;
21507;SDS011;10915;54.352;9.074;2023-06-26T01:51:14;12.23;;;9.23;;
21507;SDS011;10915;54.352;9.074;2023-06-26T01:53:45;10.63;;;8.93;;
21507;SDS011;10915;54.352;9.074;2023-06-26T01:56:29;12.17;;;8.67;;
21507;SDS011;10915;54.352;9.074;2023-06-26T01:59:12;10.73;;;8.37;;
21507;SDS011;10915;54.352;9.074;2023-06-26T02:01:39;9.93;;;8.80;;
21507;SDS011;10915;54.352;9.074;2023-06-26T02:04:05;9.97;;;8.47;;
21507;SDS011;10915;54.352;9.074;2023-06-26T02:06:30;9.40;;;8.40;;
21507;SDS011;10915;54.352;9.074;2023-06-26T02:08:56;9.50;;;8.50;;
21507;SDS011;10915;54.352;9.074;2023-06-26T02:11:22;11.83;;;8.80;;
21507;SDS011;10915;54.352;9.074;2023-06-26T02:13:48;10.30;;;8.27;;
21507;SDS011;10915;54.352;9.074;2023-06-26T02:16:14;10.93;;;9.43;;
21507;SDS011;10915;54.352;9.074;2023-06-26T02:18:39;12.23;;;8.73;;
21507;SDS011;10915;54.352;9.074;2023-06-26T02:21:05;10.10;;;8.90;;
21507;SDS011;10915;54.352;9.074;2023-06-26T02:23:31;11.57;;;8.70;;
21507;SDS011;10915;54.352;9.074;2023-06-26T02:25:57;11.67;;;8.70;;
21507;SDS011;10915;54.352;9.074;2023-06-26T02:28:22;10.97;;;8.43;;
21507;SDS011;10915;54.352;9.074;2023-06-26T02:30:48;12.97;;;9.43;;
21507;SDS011;10915;54.352;9.074;2023-06-26T02:33:14;14.97;;;9.17;;
21507;SDS011;10915;54.352;9.074;2023-06-26T02:35:39;10.67;;;9.53;;
21507;SDS011;10915;54.352;9.074;2023-06-26T02:38:05;13.07;;;9.53;;
21507;SDS011;10915;54.352;9.074;2023-06-26T02:40:31;13.37;;;10.07;;
21507;SDS011;10915;54.352;9.074;2023-06-26T02:42:58;13.77;;;10.63;;
21507;SDS011;10915;54.352;9.074;2023-06-26T02:45:23;11.63;;;10.43;;
21507;SDS011;10915;54.352;9.074;2023-06-26T02:47:49;12.20;;;10.73;;
21507;SDS011;10915;54.352;9.074;2023-06-26T02:50:15;15.93;;;10.63;;
21507;SDS011;10915;54.352;9.074;2023-06-26T02:52:41;15.87;;;11.87;;
21507;SDS011;10915;54.352;9.074;2023-06-26T02:55:13;13.60;;;10.63;;
21507;SDS011;10915;54.352;9.074;2023-06-26T02:57:38;15.73;;;11.50;;
21507;SDS011;10915;54.352;9.074;2023-06-26T03:00:04;13.00;;;11.60;;
21507;SDS011;10915;54.352;9.074;2023-06-26T03:02:33;13.17;;;11.37;;
21507;SDS011;10915;54.352;9.074;2023-06-26T03:04:59;13.90;;;11.23;;
21507;SDS011;10915;54.352;9.074;2023-06-26T03:07:24;16.07;;;11.73;;
21507;SDS011;10915;54.352;9.074;2023-06-26T03:09:50;15.53;;;11.90;;
21507;SDS011;10915;54.352;9.074;2023-06-26T03:12:15;15.70;;;12.07;;
21507;SDS011;10915;54.352;9.074;2023-06-26T03:14:41;15.23;;;11.87;;
21507;SDS011;10915;54.352;9.074;2023-06-26T03:17:07;15.53;;;13.17;;
21507;SDS011;10915;54.352;9.074;2023-06-26T03:19:32;17.67;;;12.87;;
21507;SDS011;10915;54.352;9.074;2023-06-26T03:21:58;14.93;;;12.60;;
21507;SDS011;10915;54.352;9.074;2023-06-26T03:24:25;14.30;;;12.40;;
21507;SDS011;10915;54.352;9.074;2023-06-26T03:26:51;13.47;;;12.17;;
21507;SDS011;10915;54.352;9.074;2023-06-26T03:29:17;14.50;;;13.03;;
21507;SDS011;10915;54.352;9.074;2023-06-26T03:31:42;14.23;;;12.20;;
21507;SDS011;10915;54.352;9.074;2023-06-26T03:34:11;16.73;;;13.07;;
21507;SDS011;10915;54.352;9.074;2023-06-26T03:36:36;17.33;;;13.10;;
21507;SDS011;10915;54.352;9.074;2023-06-26T03:39:02;15.23;;;13.03;;
21507;SDS011;10915;54.352;9.074;2023-06-26T03:41:29;14.97;;;13.37;;
21507;SDS011;10915;54.352;9.074;2023-06-26T03:43:55;15.77;;;14.03;;
21507;SDS011;10915;54.352;9.074;2023-06-26T03:46:21;14.33;;;12.83;;
21507;SDS011;10915;54.352;9.074;2023-06-26T03:48:47;16.40;;;14.70;;
21507;SDS011;10915;54.352;9.074;2023-06-26T03:51:13;16.80;;;13.77;;
21507;SDS011;10915;54.352;9.074;2023-06-26T03:53:39;15.50;;;13.87;;
21507;SDS011;10915;54.352;9.074;2023-06-26T03:56:05;16.60;;;14.63;;
21507;SDS011;10915;54.352;9.074;2023-06-26T03:58:31;14.57;;;13.00;;
21507;SDS011;10915;54.352;9.074;2023-06-26T04:00:56;16.30;;;14.10;;
21507;SDS011;10915;54.352;9.074;2023-06-26T04:03:23;15.17;;;13.57;;
21507;SDS011;10915;54.352;9.074;2023-06-26T04:05:48;15.60;;;14.00;;
21507;SDS011;10915;54.352;9.074;2023-06-26T04:08:14;14.27;;;12.80;;
21507;SDS011;10915;54.352;9.074;2023-06-26T04:10:40;13.90;;;12.57;;
21507;SDS011;10915;54.352;9.074;2023-06-26T04:13:06;15.03;;;13.43;;
21507;SDS011;10915;54.352;9.074;2023-06-26T04:15:31;14.33;;;12.40;;
21507;SDS011;10915;54.352;9.074;2023-06-26T04:17:57;15.83;;;13.37;;
21507;SDS011;10915;54.352;9.074;2023-06-26T04:20:22;15.07;;;13.47;;
21507;SDS011;10915;54.352;9.074;2023-06-26T04:22:48;14.40;;;12.90;;
21507;SDS011;10915;54.352;9.074;2023-06-26T04:25:14;13.67;;;12.20;;
21507;SDS011;10915;54.352;9.074;2023-06-26T04:27:39;13.57;;;12.17;;
21507;SDS011;10915;54.352;9.074;2023-06-26T04:30:05;13.73;;;11.57;;
21507;SDS011;10915;54.352;9.074;2023-06-26T04:32:31;13.10;;;11.17;;
21507;SDS011;10915;54.352;9.074;2023-06-26T04:34:57;13.30;;;11.90;;
21507;SDS011;10915;54.352;9.074;2023-06-26T04:37:22;13.80;;;12.30;;
21507;SDS011;10915;54.352;9.074;2023-06-26T04:39:49;12.43;;;10.93;;
21507;SDS011;10915;54.352;9.074;2023-06-26T04:42:15;11.40;;;10.23;;
21507;SDS011;10915;54.352;9.074;2023-06-26T04:44:41;13.03;;;11.47;;
21507;SDS011;10915;54.352;9.074;2023-06-26T04:47:07;12.37;;;10.70;;
21507;SDS011;10915;54.352;9.074;2023-06-26T04:49:33;12.70;;;10.93;;
21507;SDS011;10915;54.352;9.074;2023-06-26T04:51:59;10.77;;;9.63;;
21507;SDS011;10915;54.352;9.074;2023-06-26T04:54:25;12.33;;;10.90;;
21507;SDS011;10915;54.352;9.074;2023-06-26T04:56:52;12.33;;;11.03;;
21507;SDS011;10915;54.352;9.074;2023-06-26T04:59:17;12.33;;;11.03;;
21507;SDS011;10915;54.352;9.074;2023-06-26T05:01:43;11.50;;;10.40;;
21507;SDS011;10915;54.352;9.074;2023-06-26T05:04:12;11.93;;;10.77;;
21507;SDS011;10915;54.352;9.074;2023-06-26T05:06:38;11.83;;;10.13;;
21507;SDS011;10915;54.352;9.074;2023-06-26T05:09:04;11.03;;;9.53;;
21507;SDS011;10915;54.352;9.074;2023-06-26T05:11:29;13.50;;;10.20;;
21507;SDS011;10915;54.352;9.074;2023-06-26T05:13:55;10.70;;;9.60;;
21507;SDS011;10915;54.352;9.074;2023-06-26T05:16:21;10.67;;;8.70;;
21507;SDS011;10915;54.352;9.074;2023-06-26T05:18:46;10.27;;;8.53;;
21507;SDS011;10915;54.352;9.074;2023-06-26T05:21:12;12.87;;;9.00;;
21507;SDS011;10915;54.352;9.074;2023-06-26T05:23:38;9.97;;;8.40;;
21507;SDS011;10915;54.352;9.074;2023-06-26T05:26:03;10.23;;;8.70;;
21507;SDS011;10915;54.352;9.074;2023-06-26T05:28:29;10.47;;;8.87;;
21507;SDS011;10915;54.352;9.074;2023-06-26T05:31:00;10.53;;;8.63;;
21507;SDS011;10915;54.352;9.074;2023-06-26T05:33:27;11.27;;;10.07;;
21507;SDS011;10915;54.352;9.074;2023-06-26T05:35:53;11.73;;;10.00;;
21507;SDS011;10915;54.352;9.074;2023-06-26T05:38:20;12.83;;;10.17;;
21507;SDS011;10915;54.352;9.074;2023-06-26T05:40:46;13.80;;;10.07;;
21507;SDS011;10915;54.352;9.074;2023-06-26T05:43:12;11.93;;;10.57;;
21507;SDS011;10915;54.352;9.074;2023-06-26T05:45:38;12.23;;;10.00;;
21507;SDS011;10915;54.352;9.074;2023-06-26T05:48:04;11.80;;;10.43;;
21507;SDS011;10915;54.352;9.074;2023-06-26T05:50:30;10.60;;;9.57;;
21507;SDS011;10915;54.352;9.074;2023-06-26T05:52:56;10.93;;;9.80;;
21507;SDS011;10915;54.352;9.074;2023-06-26T05:55:22;12.67;;;9.30;;
21507;SDS011;10915;54.352;9.074;2023-06-26T05:57:48;11.13;;;9.43;;
21507;SDS011;10915;54.352;9.074;2023-06-26T06:00:15;12.13;;;9.77;;
21507;SDS011;10915;54.352;9.074;2023-06-26T06:02:42;12.10;;;9.77;;
21507;SDS011;10915;54.352;9.074;2023-06-26T06:05:08;10.20;;;8.90;;
21507;SDS011;10915;54.352;9.074;2023-06-26T06:07:34;9.87;;;8.30;;
21507;SDS011;10915;54.352;9.074;2023-06-26T06:10:00;11.93;;;9.23;;
21507;SDS011;10915;54.352;9.074;2023-06-26T06:12:26;10.17;;;9.07;;
21507;SDS011;10915;54.352;9.074;2023-06-26T06:14:52;10.50;;;8.23;;
21507;SDS011;10915;54.352;9.074;2023-06-26T06:17:19;9.13;;;8.10;;
21507;SDS011;10915;54.352;9.074;2023-06-26T06:19:45;9.80;;;7.37;;
21507;SDS011;10915;54.352;9.074;2023-06-26T06:22:11;9.57;;;8.03;;
21507;SDS011;10915;54.352;9.074;2023-06-26T06:24:36;8.17;;;7.27;;
21507;SDS011;10915;54.352;9.074;2023-06-26T06:27:02;10.13;;;7.40;;
21507;SDS011;10915;54.352;9.074;2023-06-26T06:29:28;10.03;;;7.70;;
21507;SDS011;10915;54.352;9.074;2023-06-26T06:31:54;9.73;;;8.07;;
21507;SDS011;10915;54.352;9.074;2023-06-26T06:34:19;8.90;;;7.30;;
21507;SDS011;10915;54.352;9.074;2023-06-26T06:36:45;8.53;;;7.60;;
21507;SDS011;10915;54.352;9.074;2023-06-26T06:39:11;9.67;;;7.53;;
21507;SDS011;10915;54.352;9.074;2023-06-26T06:41:36;10.53;;;6.87;;
21507;SDS011;10915;54.352;9.074;2023-06-26T06:44:03;7.93;;;6.80;;
21507;SDS011;10915;54.352;9.074;2023-06-26T06:46:28;10.33;;;7.40;;
21507;SDS011;10915;54.352;9.074;2023-06-26T06:48:55;9.53;;;7.07;;
21507;SDS011;10915;54.352;9.074;2023-06-26T06:51:21;10.53;;;7.00;;
21507;SDS011;10915;54.352;9.074;2023-06-26T06:53:47;10.27;;;6.77;;
21507;SDS011;10915;54.352;9.074;2023-06-26T06:56:13;8.67;;;7.03;;
21507;SDS011;10915;54.352;9.074;2023-06-26T06:58:38;8.23;;;6.80;;
21507;SDS011;10915;54.352;9.074;2023-06-26T07:01:07;8.37;;;7.10;;
21507;SDS011;10915;54.352;9.074;2023-06-26T07:03:34;8.30;;;6.83;;
21507;SDS011;10915;54.352;9.074;2023-06-26T07:06:01;8.50;;;6.83;;
21507;SDS011;10915;54.352;9.074;2023-06-26T07:08:26;8.43;;;6.80;;
21507;SDS011;10915;54.352;9.074;2023-06-26T07:10:52;7.27;;;6.43;;
21507;SDS011;10915;54.352;9.074;2023-06-26T07:13:18;9.33;;;6.77;;
21507;SDS011;10915;54.352;9.074;2023-06-26T07:15:44;10.33;;;6.97;;
21507;SDS011;10915;54.352;9.074;2023-06-26T07:18:12;7.53;;;6.23;;
21507;SDS011;10915;54.352;9.074;2023-06-26T07:20:38;11.63;;;6.07;;
21507;SDS011;10915;54.352;9.074;2023-06-26T07:23:04;10.37;;;6.83;;
21507;SDS011;10915;54.352;9.074;2023-06-26T07:25:29;8.53;;;6.40;;
21507;SDS011;10915;54.352;9.074;2023-06-26T07:27:55;11.27;;;7.30;;
21507;SDS011;10915;54.352;9.074;2023-06-26T07:30:20;8.63;;;6.87;;
21507;SDS011;10915;54.352;9.074;2023-06-26T07:32:46;8.83;;;7.70;;
21507;SDS011;10915;54.352;9.074;2023-06-26T07:35:12;9.50;;;6.87;;
21507;SDS011;10915;54.352;9.074;2023-06-26T07:37:38;8.60;;;7.33;;
21507;SDS011;10915;54.352;9.074;2023-06-26T07:40:03;8.70;;;6.77;;
21507;SDS011;10915;54.352;9.074;2023-06-26T07:42:29;9.47;;;8.20;;
21507;SDS011;10915;54.352;9.074;2023-06-26T07:44:55;11.40;;;8.83;;
21507;SDS011;10915;54.352;9.074;2023-06-26T07:47:21;13.13;;;10.00;;
21507;SDS011;10915;54.352;9.074;2023-06-26T07:49:46;12.10;;;9.47;;
21507;SDS011;10915;54.352;9.074;2023-06-26T07:52:12;13.63;;;11.43;;
21507;SDS011;10915;54.352;9.074;2023-06-26T07:54:40;15.50;;;11.70;;
21507;SDS011;10915;54.352;9.074;2023-06-26T07:57:06;15.03;;;11.33;;
21507;SDS011;10915;54.352;9.074;2023-06-26T07:59:32;14.80;;;12.50;;
21507;SDS011;10915;54.352;9.074;2023-06-26T08:01:58;14.53;;;12.07;;
21507;SDS011;10915;54.352;9.074;2023-06-26T08:04:25;14.00;;;10.70;;
21507;SDS011;10915;54.352;9.074;2023-06-26T08:06:52;15.27;;;10.53;;
21507;SDS011;10915;54.352;9.074;2023-06-26T08:09:21;10.13;;;8.10;;
21507;SDS011;10915;54.352;9.074;2023-06-26T08:11:47;12.80;;;7.67;;
21507;SDS011;10915;54.352;9.074;2023-06-26T08:14:13;11.65;;;6.78;;
21507;SDS011;10915;54.352;9.074;2023-06-26T08:16:40;11.02;;;7.00;;
21507;SDS011;10915;54.352;9.074;2023-06-26T08:19:06;10.07;;;6.90;;
21507;SDS011;10915;54.352;9.074;2023-06-26T08:21:32;10.17;;;6.70;;
21507;SDS011;10915;54.352;9.074;2023-06-26T08:23:58;9.57;;;5.47;;
21507;SDS011;10915;54.352;9.074;2023-06-26T08:26:24;7.30;;;5.45;;
21507;SDS011;10915;54.352;9.074;2023-06-26T08:28:49;7.45;;;5.40;;
21507;SDS011;10915;54.352;9.074;2023-06-26T08:31:16;13.20;;;6.18;;
21507;SDS011;10915;54.352;9.074;2023-06-26T08:33:42;10.52;;;6.43;;
21507;SDS011;10915;54.352;9.074;2023-06-26T08:36:08;8.57;;;5.97;;
21507;SDS011;10915;54.352;9.074;2023-06-26T08:38:33;10.70;;;6.07;;
21507;SDS011;10915;54.352;9.074;2023-06-26T08:40:59;8.50;;;5.27;;
21507;SDS011;10915;54.352;9.074;2023-06-26T08:43:25;5.87;;;4.50;;
21507;SDS011;10915;54.352;9.074;2023-06-26T08:45:52;8.20;;;4.80;;
21507;SDS011;10915;54.352;9.074;2023-06-26T08:48:17;10.73;;;5.17;;
21507;SDS011;10915;54.352;9.074;2023-06-26T08:50:45;13.10;;;5.20;;
21507;SDS011;10915;54.352;9.074;2023-06-26T08:53:19;20.50;;;5.80;;
21507;SDS011;10915;54.352;9.074;2023-06-26T08:56:05;17.90;;;5.50;;
21507;SDS011;10915;54.352;9.074;2023-06-26T08:58:33;10.37;;;5.47;;
21507;SDS011;10915;54.352;9.074;2023-06-26T09:01:01;16.80;;;6.10;;
21507;SDS011;10915;54.352;9.074;2023-06-26T09:03:29;10.90;;;5.87;;
21507;SDS011;10915;54.352;9.074;2023-06-26T09:05:55;8.20;;;4.97;;
21507;SDS011;10915;54.352;9.074;2023-06-26T09:08:21;11.10;;;5.43;;
21507;SDS011;10915;54.352;9.074;2023-06-26T09:10:46;12.00;;;5.50;;
21507;SDS011;10915;54.352;9.074;2023-06-26T09:13:12;8.80;;;5.27;;
21507;SDS011;10915;54.352;9.074;2023-06-26T09:15:38;13.10;;;5.93;;
21507;SDS011;10915;54.352;9.074;2023-06-26T09:18:08;12.03;;;6.03;;
21507;SDS011;10915;54.352;9.074;2023-06-26T09:20:33;11.60;;;6.17;;
21507;SDS011;10915;54.352;9.074;2023-06-26T09:22:59;12.57;;;6.23;;
21507;SDS011;10915;54.352;9.074;2023-06-26T09:25:26;11.07;;;6.00;;
21507;SDS011;10915;54.352;9.074;2023-06-26T09:27:52;13.60;;;7.33;;
21507;SDS011;10915;54.352;9.074;2023-06-26T09:30:18;19.07;;;7.20;;
21507;SDS011;10915;54.352;9.074;2023-06-26T09:32:44;18.83;;;7.00;;
21507;SDS011;10915;54.352;9.074;2023-06-26T09:35:10;12.30;;;7.10;;
21507;SDS011;10915;54.352;9.074;2023-06-26T09:37:36;13.97;;;6.90;;
21507;SDS011;10915;54.352;9.074;2023-06-26T09:40:03;12.97;;;6.67;;
21507;SDS011;10915;54.352;9.074;2023-06-26T09:42:29;15.87;;;6.67;;
21507;SDS011;10915;54.352;9.074;2023-06-26T09:44:56;13.40;;;7.70;;
21507;SDS011;10915;54.352;9.074;2023-06-26T09:47:22;10.93;;;6.47;;
21507;SDS011;10915;54.352;9.074;2023-06-26T09:49:47;13.83;;;7.57;;
21507;SDS011;10915;54.352;9.074;2023-06-26T09:52:16;10.43;;;6.63;;
21507;SDS011;10915;54.352;9.074;2023-06-26T09:54:42;11.53;;;7.37;;
21507;SDS011;10915;54.352;9.074;2023-06-26T09:57:20;10.60;;;6.37;;
21507;SDS011;10915;54.352;9.074;2023-06-26T09:59:45;14.80;;;6.80;;
21507;SDS011;10915;54.352;9.074;2023-06-26T10:02:11;11.67;;;6.37;;
21507;SDS011;10915;54.352;9.074;2023-06-26T10:04:37;13.00;;;7.47;;
21507;SDS011;10915;54.352;9.074;2023-06-26T10:07:06;16.23;;;7.63;;
21507;SDS011;10915;54.352;9.074;2023-06-26T10:09:36;10.70;;;6.80;;
21507;SDS011;10915;54.352;9.074;2023-06-26T10:12:06;10.87;;;6.43;;
21507;SDS011;10915;54.352;9.074;2023-06-26T10:14:44;13.03;;;7.43;;
21507;SDS011;10915;54.352;9.074;2023-06-26T10:17:11;14.03;;;7.73;;
21507;SDS011;10915;54.352;9.074;2023-06-26T10:19:44;14.33;;;7.80;;
21507;SDS011;10915;54.352;9.074;2023-06-26T10:22:20;12.23;;;7.40;;
21507;SDS011;10915;54.352;9.074;2023-06-26T10:24:47;13.67;;;7.33;;
21507;SDS011;10915;54.352;9.074;2023-06-26T10:27:17;12.20;;;5.03;;
21507;SDS011;10915;54.352;9.074;2023-06-26T10:29:49;10.27;;;3.77;;
21507;SDS011;10915;54.352;9.074;2023-06-26T10:32:18;11.10;;;3.80;;
21507;SDS011;10915;54.352;9.074;2023-06-26T10:34:46;12.83;;;2.93;;
21507;SDS011;10915;54.352;9.074;2023-06-26T10:37:12;11.20;;;3.33;;
21507;SDS011;10915;54.352;9.074;2023-06-26T10:39:47;9.63;;;3.03;;
21507;SDS011;10915;54.352;9.074;2023-06-26T10:42:14;11.57;;;2.87;;
21507;SDS011;10915;54.352;9.074;2023-06-26T10:47:37;10.20;;;2.87;;
21507;SDS011;10915;54.352;9.074;2023-06-26T10:50:48;9.00;;;2.67;;
21507;SDS011;10915;54.352;9.074;2023-06-26T11:00:22;10.93;;;2.77;;
21507;SDS011;10915;54.352;9.074;2023-06-26T11:12:46;10.23;;;3.10;;
21507;SDS011;10915;54.352;9.074;2023-06-26T11:21:49;9.57;;;2.80;;
21507;SDS011;10915;54.352;9.074;2023-06-26T11:24:50;10.75;;;3.15;;
21507;SDS011;10915;54.352;9.074;2023-06-26T11:27:47;8.43;;;2.75;;
21507;SDS011;10915;54.352;9.074;2023-06-26T11:30:45;8.47;;;3.10;;
21507;SDS011;10915;54.352;9.074;2023-06-26T11:33:16;7.53;;;2.80;;
21507;SDS011;10915;54.352;9.074;2023-06-26T11:59:05;9.43;;;2.40;;
21507;SDS011;10915;54.352;9.074;2023-06-26T12:01:54;6.03;;;2.00;;
21507;SDS011;10915;54.352;9.074;2023-06-26T12:05:06;6.40;;;2.10;;
21507;SDS011;10915;54.352;9.074;2023-06-26T12:11:03;8.57;;;2.27;;
21507;SDS011;10915;54.352;9.074;2023-06-26T12:14:06;9.30;;;2.40;;
21507;SDS011;10915;54.352;9.074;2023-06-26T12:43:28;7.30;;;1.93;;
21507;SDS011;10915;54.352;9.074;2023-06-26T12:49:57;5.65;;;2.13;;
21507;SDS011;10915;54.352;9.074;2023-06-26T12:56:11;5.32;;;1.73;;
21507;SDS011;10915;54.352;9.074;2023-06-26T13:05:23;7.28;;;2.03;;
21507;SDS011;10915;54.352;9.074;2023-06-26T13:28:00;3.23;;;1.60;;
21507;SDS011;10915;54.352;9.074;2023-06-26T13:30:32;5.43;;;1.93;;
21507;SDS011;10915;54.352;9.074;2023-06-26T13:33:24;5.37;;;2.10;;
21507;SDS011;10915;54.352;9.074;2023-06-26T13:37:00;4.93;;;1.57;;
21507;SDS011;10915;54.352;9.074;2023-06-26T13:40:01;4.13;;;1.50;;
21507;SDS011;10915;54.352;9.074;2023-06-26T13:42:35;5.97;;;2.03;;
21507;SDS011;10915;54.352;9.074;2023-06-26T13:52:07;5.83;;;1.93;;
21507;SDS011;10915;54.352;9.074;2023-06-26T13:58:24;4.10;;;1.53;;
21507;SDS011;10915;54.352;9.074;2023-06-26T14:01:20;4.97;;;1.70;;
21507;SDS011;10915;54.352;9.074;2023-06-26T14:04:16;9.27;;;2.10;;
21507;SDS011;10915;54.352;9.074;2023-06-26T14:15:44;4.20;;;1.73;;
21507;SDS011;10915;54.352;9.074;2023-06-26T14:22:13;4.80;;;2.00;;
21507;SDS011;10915;54.352;9.074;2023-06-26T14:41:37;8.20;;;2.00;;
21507;SDS011;10915;54.352;9.074;2023-06-26T14:50:52;5.23;;;1.73;;
21507;SDS011;10915;54.352;9.074;2023-06-26T14:54:02;6.23;;;1.93;;
21507;SDS011;10915;54.352;9.074;2023-06-26T14:57:06;4.37;;;2.10;;
21507;SDS011;10915;54.352;9.074;2023-06-26T14:59:50;5.77;;;2.23;;
21507;SDS011;10915;54.352;9.074;2023-06-26T15:09:56;7.80;;;2.13;;
21507;SDS011;10915;54.352;9.074;2023-06-26T15:16:24;6.17;;;2.17;;
21507;SDS011;10915;54.352;9.074;2023-06-26T15:25:09;6.47;;;2.23;;
21507;SDS011;10915;54.352;9.074;2023-06-26T15:34:46;9.67;;;2.53;;
21507;SDS011;10915;54.352;9.074;2023-06-26T15:37:34;5.87;;;1.90;;
21507;SDS011;10915;54.352;9.074;2023-06-26T15:40:12;9.53;;;2.63;;
21507;SDS011;10915;54.352;9.074;2023-06-26T15:42:58;7.90;;;2.23;;
21507;SDS011;10915;54.352;9.074;2023-06-26T15:49:11;7.30;;;2.43;;
21507;SDS011;10915;54.352;9.074;2023-06-26T15:55:14;5.57;;;2.00;;
21507;SDS011;10915;54.352;9.074;2023-06-26T16:01:26;5.50;;;1.80;;
21507;SDS011;10915;54.352;9.074;2023-06-26T16:03:51;5.87;;;2.47;;
21507;SDS011;10915;54.352;9.074;2023-06-26T16:06:43;8.93;;;2.90;;
21507;SDS011;10915;54.352;9.074;2023-06-26T16:09:55;5.60;;;1.80;;
21507;SDS011;10915;54.352;9.074;2023-06-26T16:13:05;6.30;;;1.90;;
21507;SDS011;10915;54.352;9.074;2023-06-26T16:15:51;9.17;;;2.00;;
21507;SDS011;10915;54.352;9.074;2023-06-26T16:18:22;5.30;;;1.70;;
21507;SDS011;10915;54.352;9.074;2023-06-26T16:21:03;6.47;;;1.80;;
21507;SDS011;10915;54.352;9.074;2023-06-26T16:32:45;9.33;;;2.40;;
21507;SDS011;10915;54.352;9.074;2023-06-26T16:35:37;6.20;;;2.07;;
21507;SDS011;10915;54.352;9.074;2023-06-26T16:38:47;8.60;;;2.40;;
21507;SDS011;10915;54.352;9.074;2023-06-26T16:41:21;11.23;;;2.77;;
21507;SDS011;10915;54.352;9.074;2023-06-26T16:44:56;10.20;;;2.60;;
21507;SDS011;10915;54.352;9.074;2023-06-26T16:47:36;7.27;;;2.20;;
21507;SDS011;10915;54.352;9.074;2023-06-26T16:50:02;9.03;;;2.37;;
21507;SDS011;10915;54.352;9.074;2023-06-26T16:52:28;6.07;;;2.07;;
21507;SDS011;10915;54.352;9.074;2023-06-26T16:54:53;4.50;;;1.77;;
21507;SDS011;10915;54.352;9.074;2023-06-26T16:57:19;6.40;;;2.40;;
21507;SDS011;10915;54.352;9.074;2023-06-26T16:59:44;8.63;;;2.43;;
21507;SDS011;10915;54.352;9.074;2023-06-26T17:02:10;11.23;;;2.70;;
21507;SDS011;10915;54.352;9.074;2023-06-26T17:04:36;7.80;;;2.10;;
21507;SDS011;10915;54.352;9.074;2023-06-26T17:07:02;8.17;;;2.80;;
21507;SDS011;10915;54.352;9.074;2023-06-26T17:09:27;9.83;;;2.80;;
21507;SDS011;10915;54.352;9.074;2023-06-26T17:11:53;9.97;;;2.30;;
21507;SDS011;10915;54.352;9.074;2023-06-26T17:14:19;6.40;;;2.13;;
21507;SDS011;10915;54.352;9.074;2023-06-26T17:16:45;7.57;;;2.37;;
21507;SDS011;10915;54.352;9.074;2023-06-26T17:19:10;7.17;;;2.03;;
21507;SDS011;10915;54.352;9.074;2023-06-26T17:21:36;9.70;;;2.20;;
21507;SDS011;10915;54.352;9.074;2023-06-26T17:24:05;6.87;;;2.03;;
21507;SDS011;10915;54.352;9.074;2023-06-26T17:26:30;7.60;;;2.07;;
21507;SDS011;10915;54.352;9.074;2023-06-26T17:28:56;5.87;;;2.00;;
21507;SDS011;10915;54.352;9.074;2023-06-26T17:31:22;6.50;;;1.73;;
21507;SDS011;10915;54.352;9.074;2023-06-26T17:33:48;5.67;;;1.90;;
21507;SDS011;10915;54.352;9.074;2023-06-26T17:36:13;7.07;;;2.07;;
21507;SDS011;10915;54.352;9.074;2023-06-26T17:38:39;9.47;;;2.47;;
21507;SDS011;10915;54.352;9.074;2023-06-26T17:41:06;8.57;;;2.70;;
21507;SDS011;10915;54.352;9.074;2023-06-26T17:43:32;4.80;;;1.80;;
21507;SDS011;10915;54.352;9.074;2023-06-26T17:45:58;8.73;;;2.43;;
21507;SDS011;10915;54.352;9.074;2023-06-26T17:48:24;7.00;;;2.33;;
21507;SDS011;10915;54.352;9.074;2023-06-26T17:50:50;5.33;;;1.90;;
21507;SDS011;10915;54.352;9.074;2023-06-26T17:53:15;9.27;;;2.30;;
21507;SDS011;10915;54.352;9.074;2023-06-26T17:55:42;5.30;;;2.17;;
21507;SDS011;10915;54.352;9.074;2023-06-26T17:58:08;7.87;;;2.10;;
21507;SDS011;10915;54.352;9.074;2023-06-26T18:00:34;8.83;;;1.93;;
21507;SDS011;10915;54.352;9.074;2023-06-26T18:02:59;6.67;;;2.77;;
21507;SDS011;10915;54.352;9.074;2023-06-26T18:05:25;5.40;;;2.23;;
21507;SDS011;10915;54.352;9.074;2023-06-26T18:07:51;8.03;;;2.50;;
21507;SDS011;10915;54.352;9.074;2023-06-26T18:10:17;8.63;;;2.43;;
21507;SDS011;10915;54.352;9.074;2023-06-26T18:12:42;9.93;;;2.57;;
21507;SDS011;10915;54.352;9.074;2023-06-26T18:15:08;7.60;;;2.23;;
21507;SDS011;10915;54.352;9.074;2023-06-26T18:17:34;11.50;;;2.60;;
21507;SDS011;10915;54.352;9.074;2023-06-26T18:20:00;8.07;;;2.60;;